sensor_id;sensor_type;location;lat;lon;timestamp;temperature;humidity
64654;DHT22;51065;48.884;12.598;2022-12-07T00:00:26;3.00;99.90
64654;DHT22;51065;48.884;12.598;2022-12-07T00:02:52;3.00;99.90
64654;DHT22;51065;48.884;12.598;2022-12-07T00:05:18;3.00;99.90
64654;DHT22;51065;48.884;12.598;2022-12-07T00:07:43;3.00;99.90
64654;DHT22;51065;48.884;12.598;2022-12-07T00:10:09;3.00;99.90
64654;DHT22;51065;48.884;12.598;2022-12-07T00:12:34;3.00;99.90
64654;DHT22;51065;48.884;12.598;2022-12-07T00:15:00;3.00;99.90
64654;DHT22;51065;48.884;12.598;2022-12-07T00:17:25;3.00;99.90
64654;DHT22;51065;48.884;12.598;2022-12-07T00:19:51;3.00;99.90
64654;DHT22;51065;48.884;12.598;2022-12-07T00:22:16;3.00;99.90
64654;DHT22;51065;48.884;12.598;2022-12-07T00:24:42;3.00;99.90
64654;DHT22;51065;48.884;12.598;2022-12-07T00:27:08;3.00;99.90
64654;DHT22;51065;48.884;12.598;2022-12-07T00:29:33;3.00;99.90
64654;DHT22;51065;48.884;12.598;2022-12-07T00:31:59;3.00;99.90
64654;DHT22;51065;48.884;12.598;2022-12-07T00:34:24;2.90;99.90
64654;DHT22;51065;48.884;12.598;2022-12-07T00:36:50;2.90;99.90
64654;DHT22;51065;48.884;12.598;2022-12-07T00:39:16;2.90;99.90
64654;DHT22;51065;48.884;12.598;2022-12-07T00:41:41;2.90;99.90
64654;DHT22;51065;48.884;12.598;2022-12-07T00:44:07;2.90;99.90
64654;DHT22;51065;48.884;12.598;2022-12-07T00:46:32;2.90;99.90
64654;DHT22;51065;48.884;12.598;2022-12-07T00:48:58;2.90;99.90
64654;DHT22;51065;48.884;12.598;2022-12-07T00:51:25;2.90;99.90
64654;DHT22;51065;48.884;12.598;2022-12-07T00:53:51;2.90;99.90
64654;DHT22;51065;48.884;12.598;2022-12-07T00:56:26;2.90;99.90
64654;DHT22;51065;48.884;12.598;2022-12-07T00:58:57;2.90;99.90
64654;DHT22;51065;48.884;12.598;2022-12-07T01:01:24;2.90;99.90
64654;DHT22;51065;48.884;12.598;2022-12-07T01:03:50;2.90;99.90
64654;DHT22;51065;48.884;12.598;2022-12-07T01:06:18;2.90;99.90
64654;DHT22;51065;48.884;12.598;2022-12-07T01:08:44;2.80;99.90
64654;DHT22;51065;48.884;12.598;2022-12-07T01:11:13;2.80;99.90
64654;DHT22;51065;48.884;12.598;2022-12-07T01:13:39;2.80;99.90
64654;DHT22;51065;48.884;12.598;2022-12-07T01:16:06;2.80;99.90
64654;DHT22;51065;48.884;12.598;2022-12-07T01:18:34;2.70;99.90
64654;DHT22;51065;48.884;12.598;2022-12-07T01:21:04;2.70;99.90
64654;DHT22;51065;48.884;12.598;2022-12-07T01:23:31;2.70;99.90
64654;DHT22;51065;48.884;12.598;2022-12-07T01:25:58;2.70;99.90
64654;DHT22;51065;48.884;12.598;2022-12-07T01:28:25;2.80;99.90
64654;DHT22;51065;48.884;12.598;2022-12-07T01:30:59;2.80;99.90
64654;DHT22;51065;48.884;12.598;2022-12-07T01:33:30;2.80;99.90
64654;DHT22;51065;48.884;12.598;2022-12-07T01:36:32;2.80;99.90
64654;DHT22;51065;48.884;12.598;2022-12-07T01:39:00;2.80;99.90
64654;DHT22;51065;48.884;12.598;2022-12-07T01:41:29;2.80;99.90
64654;DHT22;51065;48.884;12.598;2022-12-07T01:44:14;2.80;99.90
64654;DHT22;51065;48.884;12.598;2022-12-07T01:46:41;2.70;99.90
64654;DHT22;51065;48.884;12.598;2022-12-07T01:49:10;2.70;99.90
64654;DHT22;51065;48.884;12.598;2022-12-07T01:51:40;2.70;99.90
64654;DHT22;51065;48.884;12.598;2022-12-07T01:54:08;2.70;99.90
64654;DHT22;51065;48.884;12.598;2022-12-07T01:56:36;2.60;99.90
64654;DHT22;51065;48.884;12.598;2022-12-07T01:59:02;2.60;99.90
64654;DHT22;51065;48.884;12.598;2022-12-07T02:01:28;2.60;99.90
64654;DHT22;51065;48.884;12.598;2022-12-07T02:03:54;2.60;99.90
64654;DHT22;51065;48.884;12.598;2022-12-07T02:06:23;2.60;99.90
64654;DHT22;51065;48.884;12.598;2022-12-07T02:08:50;2.50;99.90
64654;DHT22;51065;48.884;12.598;2022-12-07T02:11:16;2.60;99.90
64654;DHT22;51065;48.884;12.598;2022-12-07T02:13:43;2.60;99.90
64654;DHT22;51065;48.884;12.598;2022-12-07T02:19:28;2.60;99.90
64654;DHT22;51065;48.884;12.598;2022-12-07T02:30:19;2.50;99.90
64654;DHT22;51065;48.884;12.598;2022-12-07T02:33:06;2.50;99.90
64654;DHT22;51065;48.884;12.598;2022-12-07T02:35:44;2.50;99.90
64654;DHT22;51065;48.884;12.598;2022-12-07T02:38:48;2.50;99.90
64654;DHT22;51065;48.884;12.598;2022-12-07T02:43:55;2.40;99.90
64654;DHT22;51065;48.884;12.598;2022-12-07T02:46:26;2.40;99.90
64654;DHT22;51065;48.884;12.598;2022-12-07T02:48:53;2.40;99.90
64654;DHT22;51065;48.884;12.598;2022-12-07T02:51:19;2.40;99.90
64654;DHT22;51065;48.884;12.598;2022-12-07T02:53:46;2.50;99.90
64654;DHT22;51065;48.884;12.598;2022-12-07T03:05:02;2.40;99.90
64654;DHT22;51065;48.884;12.598;2022-12-07T03:08:12;2.50;99.90
64654;DHT22;51065;48.884;12.598;2022-12-07T03:16:20;2.50;99.90
64654;DHT22;51065;48.884;12.598;2022-12-07T03:18:58;2.50;99.90
64654;DHT22;51065;48.884;12.598;2022-12-07T03:21:32;2.50;99.90
64654;DHT22;51065;48.884;12.598;2022-12-07T03:24:02;2.50;99.90
64654;DHT22;51065;48.884;12.598;2022-12-07T03:26:34;2.40;99.90
64654;DHT22;51065;48.884;12.598;2022-12-07T03:29:05;2.40;99.90
64654;DHT22;51065;48.884;12.598;2022-12-07T03:31:36;2.40;99.90
64654;DHT22;51065;48.884;12.598;2022-12-07T03:34:21;2.40;99.90
64654;DHT22;51065;48.884;12.598;2022-12-07T03:36:55;2.40;99.90
64654;DHT22;51065;48.884;12.598;2022-12-07T03:41:51;2.40;99.90
64654;DHT22;51065;48.884;12.598;2022-12-07T03:44:18;2.50;99.90
64654;DHT22;51065;48.884;12.598;2022-12-07T03:49:51;2.50;99.90
64654;DHT22;51065;48.884;12.598;2022-12-07T03:52:32;2.50;99.90
64654;DHT22;51065;48.884;12.598;2022-12-07T03:55:14;2.50;99.90
64654;DHT22;51065;48.884;12.598;2022-12-07T03:57:42;2.50;99.90
64654;DHT22;51065;48.884;12.598;2022-12-07T04:00:10;2.50;99.90
64654;DHT22;51065;48.884;12.598;2022-12-07T04:02:36;2.50;99.90
64654;DHT22;51065;48.884;12.598;2022-12-07T04:05:02;2.50;99.90
64654;DHT22;51065;48.884;12.598;2022-12-07T04:07:28;2.50;99.90
64654;DHT22;51065;48.884;12.598;2022-12-07T04:09:53;2.50;99.90
64654;DHT22;51065;48.884;12.598;2022-12-07T04:12:20;2.50;99.90
64654;DHT22;51065;48.884;12.598;2022-12-07T04:14:46;2.50;99.90
64654;DHT22;51065;48.884;12.598;2022-12-07T04:17:12;2.60;99.90
64654;DHT22;51065;48.884;12.598;2022-12-07T04:19:37;2.50;99.90
64654;DHT22;51065;48.884;12.598;2022-12-07T04:22:06;2.50;99.90
64654;DHT22;51065;48.884;12.598;2022-12-07T04:24:32;2.50;99.90
64654;DHT22;51065;48.884;12.598;2022-12-07T04:26:58;2.50;99.90
64654;DHT22;51065;48.884;12.598;2022-12-07T04:29:24;2.50;99.90
64654;DHT22;51065;48.884;12.598;2022-12-07T04:31:50;2.50;99.90
64654;DHT22;51065;48.884;12.598;2022-12-07T04:34:16;2.40;99.90
64654;DHT22;51065;48.884;12.598;2022-12-07T04:36:43;2.40;99.90
64654;DHT22;51065;48.884;12.598;2022-12-07T04:39:23;2.40;99.90
64654;DHT22;51065;48.884;12.598;2022-12-07T04:41:50;2.30;99.90
64654;DHT22;51065;48.884;12.598;2022-12-07T04:44:16;2.40;99.90
64654;DHT22;51065;48.884;12.598;2022-12-07T04:46:42;2.30;99.90
64654;DHT22;51065;48.884;12.598;2022-12-07T04:49:09;2.30;99.90
64654;DHT22;51065;48.884;12.598;2022-12-07T04:51:35;2.40;99.90
64654;DHT22;51065;48.884;12.598;2022-12-07T04:54:00;2.30;99.90
64654;DHT22;51065;48.884;12.598;2022-12-07T04:56:26;2.30;99.90
64654;DHT22;51065;48.884;12.598;2022-12-07T04:58:53;2.30;99.90
64654;DHT22;51065;48.884;12.598;2022-12-07T05:01:19;2.30;99.90
64654;DHT22;51065;48.884;12.598;2022-12-07T05:03:45;2.30;99.90
64654;DHT22;51065;48.884;12.598;2022-12-07T05:06:12;2.20;99.90
64654;DHT22;51065;48.884;12.598;2022-12-07T05:08:37;2.20;99.90
64654;DHT22;51065;48.884;12.598;2022-12-07T05:11:04;2.20;99.90
64654;DHT22;51065;48.884;12.598;2022-12-07T05:13:31;2.20;99.90
64654;DHT22;51065;48.884;12.598;2022-12-07T05:15:57;2.20;99.90
64654;DHT22;51065;48.884;12.598;2022-12-07T05:18:22;2.20;99.90
64654;DHT22;51065;48.884;12.598;2022-12-07T05:20:48;2.20;99.90
64654;DHT22;51065;48.884;12.598;2022-12-07T05:23:14;2.30;99.90
64654;DHT22;51065;48.884;12.598;2022-12-07T05:25:39;2.20;99.90
64654;DHT22;51065;48.884;12.598;2022-12-07T05:28:05;2.20;99.90
64654;DHT22;51065;48.884;12.598;2022-12-07T05:30:31;2.20;99.90
64654;DHT22;51065;48.884;12.598;2022-12-07T05:32:57;2.20;99.90
64654;DHT22;51065;48.884;12.598;2022-12-07T05:35:23;2.10;99.90
64654;DHT22;51065;48.884;12.598;2022-12-07T05:37:49;2.10;99.90
64654;DHT22;51065;48.884;12.598;2022-12-07T05:40:15;2.00;99.90
64654;DHT22;51065;48.884;12.598;2022-12-07T05:42:41;1.90;99.90
64654;DHT22;51065;48.884;12.598;2022-12-07T05:45:08;1.90;99.90
64654;DHT22;51065;48.884;12.598;2022-12-07T05:47:34;1.80;99.90
64654;DHT22;51065;48.884;12.598;2022-12-07T05:49:59;1.70;99.90
64654;DHT22;51065;48.884;12.598;2022-12-07T05:52:25;1.70;99.90
64654;DHT22;51065;48.884;12.598;2022-12-07T05:54:51;1.60;99.90
64654;DHT22;51065;48.884;12.598;2022-12-07T05:57:17;1.50;99.90
64654;DHT22;51065;48.884;12.598;2022-12-07T05:59:42;1.30;99.90
64654;DHT22;51065;48.884;12.598;2022-12-07T06:02:11;1.20;99.90
64654;DHT22;51065;48.884;12.598;2022-12-07T06:04:39;1.10;99.90
64654;DHT22;51065;48.884;12.598;2022-12-07T06:07:05;1.00;99.90
64654;DHT22;51065;48.884;12.598;2022-12-07T06:09:31;0.90;99.90
64654;DHT22;51065;48.884;12.598;2022-12-07T06:11:58;1.00;99.90
64654;DHT22;51065;48.884;12.598;2022-12-07T06:14:43;1.00;99.90
64654;DHT22;51065;48.884;12.598;2022-12-07T06:17:08;0.90;99.90
64654;DHT22;51065;48.884;12.598;2022-12-07T06:19:34;0.90;99.90
64654;DHT22;51065;48.884;12.598;2022-12-07T06:22:01;0.90;99.90
64654;DHT22;51065;48.884;12.598;2022-12-07T06:24:26;0.90;99.90
64654;DHT22;51065;48.884;12.598;2022-12-07T06:26:52;0.90;99.90
64654;DHT22;51065;48.884;12.598;2022-12-07T06:29:18;0.90;99.90
64654;DHT22;51065;48.884;12.598;2022-12-07T06:31:44;0.90;99.90
64654;DHT22;51065;48.884;12.598;2022-12-07T06:34:13;0.90;99.90
64654;DHT22;51065;48.884;12.598;2022-12-07T06:36:39;0.90;99.90
64654;DHT22;51065;48.884;12.598;2022-12-07T06:39:06;0.90;99.90
64654;DHT22;51065;48.884;12.598;2022-12-07T06:41:31;0.90;99.90
64654;DHT22;51065;48.884;12.598;2022-12-07T06:43:57;0.80;99.90
64654;DHT22;51065;48.884;12.598;2022-12-07T06:46:23;0.70;99.90
64654;DHT22;51065;48.884;12.598;2022-12-07T06:48:49;0.60;99.90
64654;DHT22;51065;48.884;12.598;2022-12-07T06:51:15;0.70;99.90
64654;DHT22;51065;48.884;12.598;2022-12-07T06:53:40;0.70;99.90
64654;DHT22;51065;48.884;12.598;2022-12-07T06:56:06;0.80;99.90
64654;DHT22;51065;48.884;12.598;2022-12-07T06:58:32;0.90;99.90
64654;DHT22;51065;48.884;12.598;2022-12-07T07:00:58;1.00;99.90
64654;DHT22;51065;48.884;12.598;2022-12-07T07:03:23;1.00;99.90
64654;DHT22;51065;48.884;12.598;2022-12-07T07:05:49;1.10;99.90
64654;DHT22;51065;48.884;12.598;2022-12-07T07:08:14;1.10;99.90
64654;DHT22;51065;48.884;12.598;2022-12-07T07:10:40;1.10;99.90
64654;DHT22;51065;48.884;12.598;2022-12-07T07:13:07;1.20;99.90
64654;DHT22;51065;48.884;12.598;2022-12-07T07:15:33;1.20;99.90
64654;DHT22;51065;48.884;12.598;2022-12-07T07:18:00;1.30;99.90
64654;DHT22;51065;48.884;12.598;2022-12-07T07:20:26;1.40;99.90
64654;DHT22;51065;48.884;12.598;2022-12-07T07:22:54;1.50;99.90
64654;DHT22;51065;48.884;12.598;2022-12-07T07:25:20;1.60;99.90
64654;DHT22;51065;48.884;12.598;2022-12-07T07:27:45;1.60;99.90
64654;DHT22;51065;48.884;12.598;2022-12-07T07:30:11;1.70;99.90
64654;DHT22;51065;48.884;12.598;2022-12-07T07:32:37;1.80;99.90
64654;DHT22;51065;48.884;12.598;2022-12-07T07:35:03;1.80;99.90
64654;DHT22;51065;48.884;12.598;2022-12-07T07:37:28;1.80;99.90
64654;DHT22;51065;48.884;12.598;2022-12-07T07:39:54;1.90;99.90
64654;DHT22;51065;48.884;12.598;2022-12-07T07:42:20;2.00;99.90
64654;DHT22;51065;48.884;12.598;2022-12-07T07:44:45;2.10;99.90
64654;DHT22;51065;48.884;12.598;2022-12-07T07:47:11;2.10;99.90
64654;DHT22;51065;48.884;12.598;2022-12-07T07:49:37;2.20;99.90
64654;DHT22;51065;48.884;12.598;2022-12-07T07:52:02;2.20;99.90
64654;DHT22;51065;48.884;12.598;2022-12-07T07:54:28;2.30;99.90
64654;DHT22;51065;48.884;12.598;2022-12-07T07:56:54;2.30;99.90
64654;DHT22;51065;48.884;12.598;2022-12-07T07:59:19;2.30;99.90
64654;DHT22;51065;48.884;12.598;2022-12-07T08:01:45;2.40;99.90
64654;DHT22;51065;48.884;12.598;2022-12-07T08:04:10;2.40;99.90
64654;DHT22;51065;48.884;12.598;2022-12-07T08:06:36;2.50;99.90
64654;DHT22;51065;48.884;12.598;2022-12-07T08:09:02;2.60;99.90
64654;DHT22;51065;48.884;12.598;2022-12-07T08:11:28;2.60;99.90
64654;DHT22;51065;48.884;12.598;2022-12-07T08:13:53;2.70;99.90
64654;DHT22;51065;48.884;12.598;2022-12-07T08:16:19;2.70;99.90
64654;DHT22;51065;48.884;12.598;2022-12-07T08:18:45;2.90;99.90
64654;DHT22;51065;48.884;12.598;2022-12-07T08:21:13;2.90;99.90
64654;DHT22;51065;48.884;12.598;2022-12-07T08:23:40;3.10;99.90
64654;DHT22;51065;48.884;12.598;2022-12-07T08:26:16;3.30;99.90
64654;DHT22;51065;48.884;12.598;2022-12-07T08:28:42;3.50;99.90
64654;DHT22;51065;48.884;12.598;2022-12-07T08:31:11;3.60;99.90
64654;DHT22;51065;48.884;12.598;2022-12-07T08:33:38;3.70;99.90
64654;DHT22;51065;48.884;12.598;2022-12-07T08:36:09;3.70;99.90
64654;DHT22;51065;48.884;12.598;2022-12-07T08:38:36;3.70;99.90
64654;DHT22;51065;48.884;12.598;2022-12-07T08:41:03;3.70;99.90
64654;DHT22;51065;48.884;12.598;2022-12-07T08:43:28;3.60;99.90
64654;DHT22;51065;48.884;12.598;2022-12-07T08:48:38;3.60;99.90
64654;DHT22;51065;48.884;12.598;2022-12-07T08:51:05;3.60;99.90
64654;DHT22;51065;48.884;12.598;2022-12-07T08:53:33;3.60;99.90
64654;DHT22;51065;48.884;12.598;2022-12-07T08:56:00;3.90;99.90
64654;DHT22;51065;48.884;12.598;2022-12-07T08:58:26;4.00;99.90
64654;DHT22;51065;48.884;12.598;2022-12-07T09:00:51;4.10;99.90
64654;DHT22;51065;48.884;12.598;2022-12-07T09:03:17;4.30;99.90
64654;DHT22;51065;48.884;12.598;2022-12-07T09:05:42;4.50;99.90
64654;DHT22;51065;48.884;12.598;2022-12-07T09:08:08;4.70;99.90
64654;DHT22;51065;48.884;12.598;2022-12-07T09:10:34;5.40;99.90
64654;DHT22;51065;48.884;12.598;2022-12-07T09:12:59;5.80;99.90
64654;DHT22;51065;48.884;12.598;2022-12-07T09:15:29;6.10;99.90
64654;DHT22;51065;48.884;12.598;2022-12-07T09:17:55;5.90;99.90
64654;DHT22;51065;48.884;12.598;2022-12-07T09:20:21;5.60;99.90
64654;DHT22;51065;48.884;12.598;2022-12-07T09:22:47;5.70;99.90
64654;DHT22;51065;48.884;12.598;2022-12-07T09:25:13;5.70;99.90
64654;DHT22;51065;48.884;12.598;2022-12-07T09:27:38;5.70;99.90
64654;DHT22;51065;48.884;12.598;2022-12-07T09:30:05;5.30;99.90
64654;DHT22;51065;48.884;12.598;2022-12-07T09:32:31;5.20;99.90
64654;DHT22;51065;48.884;12.598;2022-12-07T09:34:56;5.00;99.90
64654;DHT22;51065;48.884;12.598;2022-12-07T09:37:22;4.90;99.90
64654;DHT22;51065;48.884;12.598;2022-12-07T09:39:48;4.70;99.90
64654;DHT22;51065;48.884;12.598;2022-12-07T09:42:37;4.60;99.90
64654;DHT22;51065;48.884;12.598;2022-12-07T09:45:07;4.50;99.90
64654;DHT22;51065;48.884;12.598;2022-12-07T09:47:37;4.40;99.90
64654;DHT22;51065;48.884;12.598;2022-12-07T09:50:05;4.20;99.90
64654;DHT22;51065;48.884;12.598;2022-12-07T09:52:32;4.10;99.90
64654;DHT22;51065;48.884;12.598;2022-12-07T09:54:58;4.10;99.90
64654;DHT22;51065;48.884;12.598;2022-12-07T09:57:30;4.10;99.90
64654;DHT22;51065;48.884;12.598;2022-12-07T10:00:01;4.20;99.90
64654;DHT22;51065;48.884;12.598;2022-12-07T10:02:40;4.40;99.90
64654;DHT22;51065;48.884;12.598;2022-12-07T10:05:12;4.40;99.90
64654;DHT22;51065;48.884;12.598;2022-12-07T10:07:38;4.50;99.90
64654;DHT22;51065;48.884;12.598;2022-12-07T10:10:12;4.60;99.90
64654;DHT22;51065;48.884;12.598;2022-12-07T10:12:57;4.90;99.90
64654;DHT22;51065;48.884;12.598;2022-12-07T10:15:23;5.10;99.90
64654;DHT22;51065;48.884;12.598;2022-12-07T10:17:50;5.20;99.90
64654;DHT22;51065;48.884;12.598;2022-12-07T10:20:25;5.30;99.90
64654;DHT22;51065;48.884;12.598;2022-12-07T10:23:02;5.20;99.90
64654;DHT22;51065;48.884;12.598;2022-12-07T10:25:32;4.90;99.90
64654;DHT22;51065;48.884;12.598;2022-12-07T10:30:45;4.70;99.90
64654;DHT22;51065;48.884;12.598;2022-12-07T10:33:38;4.50;99.90
64654;DHT22;51065;48.884;12.598;2022-12-07T10:36:37;4.40;99.90
64654;DHT22;51065;48.884;12.598;2022-12-07T10:39:32;4.20;99.90
64654;DHT22;51065;48.884;12.598;2022-12-07T10:42:05;4.10;99.90
64654;DHT22;51065;48.884;12.598;2022-12-07T10:44:33;4.20;99.90
64654;DHT22;51065;48.884;12.598;2022-12-07T10:47:23;4.30;99.90
64654;DHT22;51065;48.884;12.598;2022-12-07T10:52:34;4.30;99.90
64654;DHT22;51065;48.884;12.598;2022-12-07T10:55:26;4.30;99.90
64654;DHT22;51065;48.884;12.598;2022-12-07T11:11:45;4.40;99.90
64654;DHT22;51065;48.884;12.598;2022-12-07T11:16:56;4.40;99.90
64654;DHT22;51065;48.884;12.598;2022-12-07T11:22:22;4.40;99.90
64654;DHT22;51065;48.884;12.598;2022-12-07T11:32:53;4.50;99.90
64654;DHT22;51065;48.884;12.598;2022-12-07T11:36:01;4.50;99.90
64654;DHT22;51065;48.884;12.598;2022-12-07T11:38:45;4.30;99.90
64654;DHT22;51065;48.884;12.598;2022-12-07T11:41:12;4.30;99.90
64654;DHT22;51065;48.884;12.598;2022-12-07T11:44:00;4.30;99.90
64654;DHT22;51065;48.884;12.598;2022-12-07T11:46:35;4.30;99.90
64654;DHT22;51065;48.884;12.598;2022-12-07T11:49:19;4.30;99.90
64654;DHT22;51065;48.884;12.598;2022-12-07T11:51:49;4.40;99.90
64654;DHT22;51065;48.884;12.598;2022-12-07T11:54:30;4.40;99.90
64654;DHT22;51065;48.884;12.598;2022-12-07T11:56:59;4.30;99.90
64654;DHT22;51065;48.884;12.598;2022-12-07T11:59:33;4.30;99.90
64654;DHT22;51065;48.884;12.598;2022-12-07T12:02:18;4.30;99.90
64654;DHT22;51065;48.884;12.598;2022-12-07T12:07:26;4.40;99.90
64654;DHT22;51065;48.884;12.598;2022-12-07T12:09:59;4.50;99.90
64654;DHT22;51065;48.884;12.598;2022-12-07T12:12:44;4.50;99.90
64654;DHT22;51065;48.884;12.598;2022-12-07T12:21:29;4.50;99.90
64654;DHT22;51065;48.884;12.598;2022-12-07T12:24:24;4.50;99.90
64654;DHT22;51065;48.884;12.598;2022-12-07T12:27:08;4.50;99.90
64654;DHT22;51065;48.884;12.598;2022-12-07T12:29:41;4.50;99.90
64654;DHT22;51065;48.884;12.598;2022-12-07T12:32:54;4.50;99.90
64654;DHT22;51065;48.884;12.598;2022-12-07T12:35:17;4.40;99.90
64654;DHT22;51065;48.884;12.598;2022-12-07T12:37:46;4.40;99.90
64654;DHT22;51065;48.884;12.598;2022-12-07T12:42:58;4.30;99.90
64654;DHT22;51065;48.884;12.598;2022-12-07T12:45:26;4.30;99.90
64654;DHT22;51065;48.884;12.598;2022-12-07T12:47:59;4.30;99.90
64654;DHT22;51065;48.884;12.598;2022-12-07T12:50:32;4.40;99.90
64654;DHT22;51065;48.884;12.598;2022-12-07T12:53:00;4.40;99.90
64654;DHT22;51065;48.884;12.598;2022-12-07T13:00:46;4.40;99.90
64654;DHT22;51065;48.884;12.598;2022-12-07T13:03:51;4.30;99.90
64654;DHT22;51065;48.884;12.598;2022-12-07T13:08:54;4.30;99.90
64654;DHT22;51065;48.884;12.598;2022-12-07T13:11:41;4.30;99.90
64654;DHT22;51065;48.884;12.598;2022-12-07T13:17:01;4.40;99.90
64654;DHT22;51065;48.884;12.598;2022-12-07T13:19:54;4.30;99.90
64654;DHT22;51065;48.884;12.598;2022-12-07T13:25:43;4.30;99.90
64654;DHT22;51065;48.884;12.598;2022-12-07T13:28:17;4.30;99.90
64654;DHT22;51065;48.884;12.598;2022-12-07T13:31:00;4.30;99.90
64654;DHT22;51065;48.884;12.598;2022-12-07T13:33:29;4.30;99.90
64654;DHT22;51065;48.884;12.598;2022-12-07T13:35:55;4.30;99.90
64654;DHT22;51065;48.884;12.598;2022-12-07T13:38:25;4.30;99.90
64654;DHT22;51065;48.884;12.598;2022-12-07T13:41:11;4.20;99.90
64654;DHT22;51065;48.884;12.598;2022-12-07T13:43:55;4.20;99.90
64654;DHT22;51065;48.884;12.598;2022-12-07T13:47:00;4.20;99.90
64654;DHT22;51065;48.884;12.598;2022-12-07T13:49:31;4.20;99.90
64654;DHT22;51065;48.884;12.598;2022-12-07T13:54:48;4.10;99.90
64654;DHT22;51065;48.884;12.598;2022-12-07T13:57:16;4.10;99.90
64654;DHT22;51065;48.884;12.598;2022-12-07T13:59:42;4.00;99.90
64654;DHT22;51065;48.884;12.598;2022-12-07T14:02:30;4.00;99.90
64654;DHT22;51065;48.884;12.598;2022-12-07T14:05:14;4.00;99.90
64654;DHT22;51065;48.884;12.598;2022-12-07T14:10:53;4.00;99.90
64654;DHT22;51065;48.884;12.598;2022-12-07T14:13:37;4.00;99.90
64654;DHT22;51065;48.884;12.598;2022-12-07T14:16:22;4.00;99.90
64654;DHT22;51065;48.884;12.598;2022-12-07T14:18:49;4.00;99.90
64654;DHT22;51065;48.884;12.598;2022-12-07T14:21:23;4.00;99.90
64654;DHT22;51065;48.884;12.598;2022-12-07T14:26:33;3.90;99.90
64654;DHT22;51065;48.884;12.598;2022-12-07T14:31:46;3.90;99.90
64654;DHT22;51065;48.884;12.598;2022-12-07T14:34:12;3.90;99.90
64654;DHT22;51065;48.884;12.598;2022-12-07T14:36:37;3.80;99.90
64654;DHT22;51065;48.884;12.598;2022-12-07T14:39:03;3.80;99.90
64654;DHT22;51065;48.884;12.598;2022-12-07T14:41:28;3.80;99.90
64654;DHT22;51065;48.884;12.598;2022-12-07T14:44:13;3.80;99.90
64654;DHT22;51065;48.884;12.598;2022-12-07T14:46:39;3.80;99.90
64654;DHT22;51065;48.884;12.598;2022-12-07T14:49:04;3.80;99.90
64654;DHT22;51065;48.884;12.598;2022-12-07T14:51:31;3.80;99.90
64654;DHT22;51065;48.884;12.598;2022-12-07T14:53:57;3.80;99.90
64654;DHT22;51065;48.884;12.598;2022-12-07T14:56:23;3.70;99.90
64654;DHT22;51065;48.884;12.598;2022-12-07T14:58:49;3.70;99.90
64654;DHT22;51065;48.884;12.598;2022-12-07T15:01:14;3.70;99.90
64654;DHT22;51065;48.884;12.598;2022-12-07T15:03:40;3.70;99.90
64654;DHT22;51065;48.884;12.598;2022-12-07T15:06:06;3.70;99.90
64654;DHT22;51065;48.884;12.598;2022-12-07T15:08:32;3.70;99.90
64654;DHT22;51065;48.884;12.598;2022-12-07T15:10:57;3.70;99.90
64654;DHT22;51065;48.884;12.598;2022-12-07T15:13:23;3.60;99.90
64654;DHT22;51065;48.884;12.598;2022-12-07T15:16:10;3.60;99.90
64654;DHT22;51065;48.884;12.598;2022-12-07T15:18:36;3.60;99.90
64654;DHT22;51065;48.884;12.598;2022-12-07T15:21:02;3.60;99.90
64654;DHT22;51065;48.884;12.598;2022-12-07T15:23:28;3.60;99.90
64654;DHT22;51065;48.884;12.598;2022-12-07T15:25:53;3.60;99.90
64654;DHT22;51065;48.884;12.598;2022-12-07T15:28:19;3.50;99.90
64654;DHT22;51065;48.884;12.598;2022-12-07T15:30:44;3.50;99.90
64654;DHT22;51065;48.884;12.598;2022-12-07T15:33:11;3.50;99.90
64654;DHT22;51065;48.884;12.598;2022-12-07T15:35:41;3.50;99.90
64654;DHT22;51065;48.884;12.598;2022-12-07T15:38:07;3.60;99.90
64654;DHT22;51065;48.884;12.598;2022-12-07T15:40:33;3.50;99.90
64654;DHT22;51065;48.884;12.598;2022-12-07T15:42:59;3.50;99.90
64654;DHT22;51065;48.884;12.598;2022-12-07T15:45:24;3.50;99.90
64654;DHT22;51065;48.884;12.598;2022-12-07T15:47:50;3.50;99.90
64654;DHT22;51065;48.884;12.598;2022-12-07T15:50:16;3.50;99.90
64654;DHT22;51065;48.884;12.598;2022-12-07T15:52:42;3.50;99.90
64654;DHT22;51065;48.884;12.598;2022-12-07T15:55:09;3.50;99.90
64654;DHT22;51065;48.884;12.598;2022-12-07T15:57:36;3.50;99.90
64654;DHT22;51065;48.884;12.598;2022-12-07T16:00:04;3.50;99.90
64654;DHT22;51065;48.884;12.598;2022-12-07T16:02:30;3.50;99.90
64654;DHT22;51065;48.884;12.598;2022-12-07T16:04:55;3.50;99.90
64654;DHT22;51065;48.884;12.598;2022-12-07T16:07:21;3.50;99.90
64654;DHT22;51065;48.884;12.598;2022-12-07T16:09:47;3.50;99.90
64654;DHT22;51065;48.884;12.598;2022-12-07T16:12:13;3.40;99.90
64654;DHT22;51065;48.884;12.598;2022-12-07T16:14:40;3.40;99.90
64654;DHT22;51065;48.884;12.598;2022-12-07T16:17:06;3.30;99.90
64654;DHT22;51065;48.884;12.598;2022-12-07T16:19:32;3.30;99.90
64654;DHT22;51065;48.884;12.598;2022-12-07T16:21:58;3.30;99.90
64654;DHT22;51065;48.884;12.598;2022-12-07T16:24:25;3.30;99.90
64654;DHT22;51065;48.884;12.598;2022-12-07T16:26:50;3.30;99.90
64654;DHT22;51065;48.884;12.598;2022-12-07T16:29:18;3.20;99.90
64654;DHT22;51065;48.884;12.598;2022-12-07T16:31:45;3.20;99.90
64654;DHT22;51065;48.884;12.598;2022-12-07T16:34:10;3.20;99.90
64654;DHT22;51065;48.884;12.598;2022-12-07T16:36:36;3.10;99.90
64654;DHT22;51065;48.884;12.598;2022-12-07T16:39:03;3.10;99.90
64654;DHT22;51065;48.884;12.598;2022-12-07T16:41:29;3.10;99.90
64654;DHT22;51065;48.884;12.598;2022-12-07T16:43:55;3.10;99.90
64654;DHT22;51065;48.884;12.598;2022-12-07T16:46:20;3.10;99.90
64654;DHT22;51065;48.884;12.598;2022-12-07T16:48:46;3.00;99.90
64654;DHT22;51065;48.884;12.598;2022-12-07T16:51:13;3.00;99.90
64654;DHT22;51065;48.884;12.598;2022-12-07T16:53:40;3.00;99.90
64654;DHT22;51065;48.884;12.598;2022-12-07T16:56:13;3.00;99.90
64654;DHT22;51065;48.884;12.598;2022-12-07T16:58:42;3.10;99.90
64654;DHT22;51065;48.884;12.598;2022-12-07T17:01:13;3.00;99.90
64654;DHT22;51065;48.884;12.598;2022-12-07T17:03:40;3.00;99.90
64654;DHT22;51065;48.884;12.598;2022-12-07T17:06:19;3.00;99.90
64654;DHT22;51065;48.884;12.598;2022-12-07T17:08:46;3.00;99.90
64654;DHT22;51065;48.884;12.598;2022-12-07T17:13:37;3.00;99.90
64654;DHT22;51065;48.884;12.598;2022-12-07T17:16:21;3.00;99.90
64654;DHT22;51065;48.884;12.598;2022-12-07T17:18:46;2.90;99.90
64654;DHT22;51065;48.884;12.598;2022-12-07T17:21:12;2.90;99.90
64654;DHT22;51065;48.884;12.598;2022-12-07T17:23:37;2.90;99.90
64654;DHT22;51065;48.884;12.598;2022-12-07T17:26:08;2.90;99.90
64654;DHT22;51065;48.884;12.598;2022-12-07T17:28:35;2.90;99.90
64654;DHT22;51065;48.884;12.598;2022-12-07T17:31:03;2.90;99.90
64654;DHT22;51065;48.884;12.598;2022-12-07T17:33:29;2.90;99.90